createdAt,value
2023-04-30T00:01:18.124Z,7.82
2023-04-30T00:03:46.928Z,7.78
2023-04-30T00:06:16.099Z,7.74
2023-04-30T00:08:44.851Z,7.70
2023-04-30T00:11:13.557Z,7.68
2023-04-30T00:13:43.037Z,7.64
2023-04-30T00:16:11.740Z,7.55
2023-04-30T00:18:40.454Z,7.46
2023-04-30T00:21:09.328Z,7.43
2023-04-30T00:23:38.147Z,7.41
2023-04-30T00:26:06.774Z,7.42
2023-04-30T00:28:35.460Z,7.41
2023-04-30T00:31:06.897Z,7.38
2023-04-30T00:33:35.606Z,7.32
2023-04-30T00:36:04.687Z,7.24
2023-04-30T00:38:33.347Z,7.13
2023-04-30T00:41:02.437Z,7.03
2023-04-30T00:43:31.700Z,6.98
2023-04-30T00:46:00.493Z,6.97
2023-04-30T00:48:29.393Z,6.95
2023-04-30T00:50:58.133Z,6.91
2023-04-30T00:53:26.897Z,6.85
2023-04-30T00:55:55.928Z,6.83
2023-04-30T00:58:25.335Z,6.76
2023-04-30T01:00:54.417Z,6.71
2023-04-30T01:03:23.352Z,6.68
2023-04-30T01:05:53.800Z,6.66
2023-04-30T01:08:22.894Z,6.70
2023-04-30T01:11:21.004Z,6.69
2023-04-30T01:14:13.351Z,6.65
2023-04-30T01:16:51.258Z,6.62
2023-04-30T01:19:42.582Z,6.53
2023-04-30T01:22:21.733Z,6.49
2023-04-30T01:25:05.984Z,6.49
2023-04-30T01:28:03.204Z,6.54
2023-04-30T01:30:33.046Z,6.57
2023-04-30T01:33:02.938Z,6.47
2023-04-30T01:35:59.869Z,6.38
2023-04-30T01:38:46.885Z,6.27
2023-04-30T01:41:44.932Z,6.27
2023-04-30T01:44:28.675Z,6.28
2023-04-30T01:47:09.711Z,6.22
2023-04-30T01:49:57.855Z,6.20
2023-04-30T01:52:39.311Z,6.17
2023-04-30T01:55:10.256Z,6.11
2023-04-30T01:57:42.918Z,6.07
2023-04-30T02:00:12.102Z,6.03
2023-04-30T02:02:41.213Z,6.07
2023-04-30T02:05:09.998Z,6.11
2023-04-30T02:07:43.884Z,6.13
2023-04-30T02:10:12.698Z,6.09
2023-04-30T02:12:41.406Z,6.11
2023-04-30T02:15:10.425Z,6.08
2023-04-30T02:17:39.657Z,6.10
2023-04-30T02:20:09.275Z,6.10
2023-04-30T02:22:38.143Z,6.12
2023-04-30T02:25:07.418Z,6.13
2023-04-30T02:27:36.383Z,6.17
2023-04-30T02:30:06.486Z,6.20
2023-04-30T02:32:35.293Z,6.21
2023-04-30T02:35:04.253Z,6.24
2023-04-30T02:37:32.931Z,6.23
2023-04-30T02:40:01.679Z,6.27
2023-04-30T02:42:30.319Z,6.29
2023-04-30T02:44:59.391Z,6.31
2023-04-30T02:47:28.123Z,6.28
2023-04-30T02:49:57.053Z,6.25
2023-04-30T02:52:26.355Z,6.19
2023-04-30T02:54:55.015Z,6.11
2023-04-30T02:57:23.684Z,6.05
2023-04-30T02:59:52.622Z,5.98
2023-04-30T03:02:23.499Z,5.96
2023-04-30T03:04:52.458Z,5.99
2023-04-30T03:07:21.470Z,5.97
2023-04-30T03:09:50.235Z,5.86
2023-04-30T03:12:18.871Z,5.81
2023-04-30T03:14:47.524Z,5.71
2023-04-30T03:17:16.725Z,5.62
2023-04-30T03:19:45.448Z,5.58
2023-04-30T03:22:14.143Z,5.54
2023-04-30T03:24:42.838Z,5.50
2023-04-30T03:27:11.825Z,5.49
2023-04-30T03:29:40.469Z,5.48
2023-04-30T03:32:09.199Z,5.51
2023-04-30T03:34:38.555Z,5.48
2023-04-30T03:37:07.574Z,5.44
2023-04-30T03:39:36.213Z,5.39
2023-04-30T03:42:04.870Z,5.37
2023-04-30T03:44:33.488Z,5.40
2023-04-30T03:47:02.166Z,5.42
2023-04-30T03:49:30.839Z,5.47
2023-04-30T03:51:59.712Z,5.50
2023-04-30T03:54:28.814Z,5.48
2023-04-30T03:56:57.923Z,5.56
2023-04-30T03:59:26.656Z,5.78
2023-04-30T04:01:56.005Z,6.09
2023-04-30T04:04:24.777Z,6.28
2023-04-30T04:06:53.451Z,6.42
2023-04-30T04:09:22.153Z,6.46
2023-04-30T04:11:50.862Z,6.29
2023-04-30T04:14:19.558Z,6.16
2023-04-30T04:16:48.239Z,6.07
2023-04-30T04:19:16.889Z,5.99
2023-04-30T04:21:45.594Z,5.92
2023-04-30T04:24:14.267Z,5.91
2023-04-30T04:26:43.013Z,5.95
2023-04-30T04:29:12.295Z,5.98
2023-04-30T04:31:42.868Z,6.01
2023-04-30T04:34:12.796Z,6.01
2023-04-30T04:36:41.570Z,6.04
2023-04-30T04:39:10.457Z,6.09
2023-04-30T04:41:39.413Z,6.13
2023-04-30T04:44:08.123Z,6.21
2023-04-30T04:46:38.756Z,6.27
2023-04-30T04:49:08.090Z,6.37
2023-04-30T04:51:37.095Z,6.45
2023-04-30T04:54:06.282Z,6.49
2023-04-30T04:56:35.323Z,6.53
2023-04-30T04:59:04.001Z,6.57
2023-04-30T05:01:32.683Z,6.58
2023-04-30T05:04:01.451Z,6.64
2023-04-30T05:06:30.909Z,6.73
2023-04-30T05:08:59.650Z,6.86
2023-04-30T05:11:28.337Z,6.95
2023-04-30T05:13:58.296Z,6.98
2023-04-30T05:16:27.017Z,7.06
2023-04-30T05:18:55.926Z,7.08
2023-04-30T05:21:26.730Z,7.16
2023-04-30T05:23:56.003Z,7.28
2023-04-30T05:26:24.701Z,7.39
2023-04-30T05:28:53.394Z,7.45
2023-04-30T05:31:22.274Z,7.53
2023-04-30T05:33:50.956Z,7.62
2023-04-30T05:36:19.604Z,7.70
2023-04-30T05:38:48.283Z,7.78
2023-04-30T05:41:16.985Z,7.89
2023-04-30T05:43:45.765Z,7.93
2023-04-30T05:46:14.448Z,8.03
2023-04-30T05:48:43.124Z,8.16
2023-04-30T05:51:11.776Z,8.23
2023-04-30T05:53:40.435Z,8.31
2023-04-30T05:56:09.099Z,8.41
2023-04-30T05:58:37.855Z,8.53
2023-04-30T06:01:06.612Z,8.60
2023-04-30T06:03:35.264Z,8.59
2023-04-30T06:06:04.804Z,8.62
2023-04-30T06:08:33.520Z,8.69
2023-04-30T06:11:04.000Z,8.72
2023-04-30T06:13:32.757Z,8.80
2023-04-30T06:16:01.545Z,8.92
2023-04-30T06:18:30.380Z,9.09
2023-04-30T06:20:59.087Z,9.16
2023-04-30T06:23:27.788Z,9.24
2023-04-30T06:25:56.509Z,9.24
2023-04-30T06:28:25.469Z,9.25
2023-04-30T06:30:55.164Z,9.31
2023-04-30T06:33:23.915Z,9.36
2023-04-30T06:35:55.332Z,9.39
2023-04-30T06:38:24.081Z,9.45
2023-04-30T06:40:52.852Z,9.52
2023-04-30T06:43:21.577Z,9.53
2023-04-30T06:45:50.371Z,9.64
2023-04-30T06:48:19.051Z,9.75
2023-04-30T06:50:47.707Z,9.91
2023-04-30T06:53:16.437Z,10.02
2023-04-30T06:55:48.821Z,10.20
2023-04-30T06:58:18.748Z,10.30
2023-04-30T07:00:47.369Z,10.29
2023-04-30T07:03:16.213Z,10.32
2023-04-30T07:05:45.206Z,10.25
2023-04-30T07:08:15.228Z,10.35
2023-04-30T07:10:43.900Z,10.47
2023-04-30T07:13:12.577Z,10.62
2023-04-30T07:15:42.226Z,10.77
2023-04-30T07:18:11.407Z,10.90
2023-04-30T07:20:40.313Z,10.85
2023-04-30T07:23:08.950Z,10.86
2023-04-30T07:25:37.608Z,10.77
2023-04-30T07:28:06.248Z,10.68
2023-04-30T07:30:34.902Z,10.74
2023-04-30T07:33:03.616Z,10.80
2023-04-30T07:35:32.753Z,10.78
2023-04-30T07:38:01.389Z,10.76
2023-04-30T07:43:05.118Z,11.12
2023-04-30T07:45:33.952Z,11.40
2023-04-30T07:48:03.068Z,11.68
2023-04-30T07:50:34.303Z,11.85
2023-04-30T07:53:03.426Z,12.19
2023-04-30T07:55:32.159Z,12.39
2023-04-30T07:58:02.488Z,12.66
2023-04-30T08:00:31.359Z,12.98
2023-04-30T08:03:00.934Z,13.02
2023-04-30T08:05:29.927Z,12.98
2023-04-30T08:07:58.577Z,13.06
2023-04-30T08:10:27.358Z,13.14
2023-04-30T08:12:56.067Z,13.22
2023-04-30T08:15:24.809Z,13.00
2023-04-30T08:17:53.515Z,12.96
2023-04-30T08:20:23.690Z,13.02
2023-04-30T08:22:52.651Z,13.12
2023-04-30T08:25:21.346Z,13.37
2023-04-30T08:27:50.167Z,13.46
2023-04-30T08:30:19.292Z,13.47
2023-04-30T08:32:49.372Z,13.57
2023-04-30T08:35:18.202Z,13.70
2023-04-30T08:37:46.867Z,13.74
2023-04-30T08:40:16.619Z,13.90
2023-04-30T08:42:50.468Z,14.15
2023-04-30T08:45:19.902Z,14.16
2023-04-30T08:47:49.944Z,13.95
2023-04-30T08:50:18.888Z,14.10
2023-04-30T08:52:47.576Z,14.08
2023-04-30T08:55:16.544Z,14.08
2023-04-30T08:57:45.305Z,14.10
2023-04-30T09:00:14.295Z,14.25
2023-04-30T09:02:43.297Z,14.34
2023-04-30T09:05:13.942Z,14.29
2023-04-30T09:08:01.186Z,14.38
2023-04-30T09:10:35.857Z,14.36
2023-04-30T09:13:06.650Z,14.43
2023-04-30T09:15:37.996Z,14.62
2023-04-30T09:18:21.193Z,14.87
2023-04-30T09:21:01.961Z,15.25
2023-04-30T09:23:30.981Z,15.53
2023-04-30T09:26:00.739Z,15.47
2023-04-30T09:28:29.674Z,15.53
2023-04-30T09:30:58.705Z,15.43
2023-04-30T09:33:27.383Z,15.27
2023-04-30T09:35:56.103Z,15.33
2023-04-30T09:38:34.010Z,15.49
2023-04-30T09:41:02.801Z,15.91
2023-04-30T09:43:31.667Z,15.85
2023-04-30T09:46:00.635Z,16.02
2023-04-30T09:48:29.666Z,16.13
2023-04-30T09:50:58.684Z,16.23
2023-04-30T09:53:28.049Z,16.04
2023-04-30T09:55:59.213Z,15.73
2023-04-30T09:58:29.203Z,15.75
2023-04-30T10:00:59.303Z,15.66
2023-04-30T10:03:28.989Z,15.64
2023-04-30T10:05:58.087Z,15.65
2023-04-30T10:08:33.946Z,15.72
2023-04-30T10:11:07.584Z,15.60
2023-04-30T10:13:53.043Z,15.62
2023-04-30T10:16:51.588Z,15.64
2023-04-30T10:19:24.606Z,16.03
2023-04-30T10:21:53.468Z,16.19
2023-04-30T10:24:22.164Z,16.40
2023-04-30T10:26:50.979Z,16.31
2023-04-30T10:29:19.668Z,16.67
2023-04-30T10:31:50.610Z,17.02
2023-04-30T10:34:59.281Z,17.02
2023-04-30T10:37:34.506Z,17.10
2023-04-30T10:40:05.311Z,16.94
2023-04-30T10:42:35.962Z,16.73
2023-04-30T10:45:04.990Z,16.67
2023-04-30T10:47:33.752Z,16.56
2023-04-30T10:50:08.866Z,16.47
2023-04-30T10:52:39.090Z,16.75
2023-04-30T10:55:09.112Z,17.23
2023-04-30T10:57:43.268Z,17.32
2023-04-30T11:00:13.345Z,17.11
2023-04-30T11:02:44.852Z,17.30
2023-04-30T11:05:18.551Z,17.35
2023-04-30T11:07:49.827Z,17.46
2023-04-30T11:10:25.432Z,17.50
2023-04-30T11:12:55.818Z,17.75
2023-04-30T11:15:27.075Z,17.89
2023-04-30T11:17:59.694Z,17.99
2023-04-30T11:20:28.678Z,17.95
2023-04-30T11:23:38.280Z,18.01
2023-04-30T11:26:09.646Z,17.84
2023-04-30T11:28:38.774Z,17.74
2023-04-30T11:31:07.530Z,17.86
2023-04-30T11:33:36.317Z,17.88
2023-04-30T11:36:05.614Z,18.01
2023-04-30T11:38:36.914Z,18.25
2023-04-30T11:41:06.838Z,18.34
2023-04-30T11:43:35.647Z,18.51
2023-04-30T11:46:14.068Z,18.44
2023-04-30T11:48:45.005Z,18.24
2023-04-30T11:51:22.144Z,17.96
2023-04-30T11:53:52.456Z,17.93
2023-04-30T11:56:25.792Z,18.24
2023-04-30T11:58:57.659Z,18.38
2023-04-30T12:01:28.651Z,18.33
2023-04-30T12:03:57.662Z,18.17
2023-04-30T12:06:28.919Z,18.06
2023-04-30T12:09:07.626Z,18.03
2023-04-30T12:11:36.490Z,18.03
2023-04-30T12:14:07.974Z,17.99
2023-04-30T12:16:53.222Z,18.27
2023-04-30T12:19:25.292Z,18.48
2023-04-30T12:21:55.374Z,18.34
2023-04-30T12:24:27.479Z,18.20
2023-04-30T12:26:56.319Z,18.36
2023-04-30T12:29:25.824Z,18.51
2023-04-30T12:31:54.730Z,18.53
2023-04-30T12:34:26.938Z,18.56
2023-04-30T12:36:58.231Z,18.44
2023-04-30T12:39:33.839Z,18.56
2023-04-30T12:42:04.301Z,18.37
2023-04-30T12:44:44.544Z,18.21
2023-04-30T12:47:14.339Z,17.98
2023-04-30T12:49:46.053Z,17.97
2023-04-30T12:52:15.641Z,18.17
2023-04-30T12:54:44.448Z,18.16
2023-04-30T12:57:13.168Z,18.23
2023-04-30T12:59:59.498Z,18.21
2023-04-30T13:02:32.115Z,18.38
2023-04-30T13:05:01.053Z,18.43
2023-04-30T13:07:38.591Z,18.25
2023-04-30T13:10:07.535Z,18.25
2023-04-30T13:12:36.472Z,18.40
2023-04-30T13:15:05.727Z,18.39
2023-04-30T13:17:34.486Z,18.38
2023-04-30T13:20:03.319Z,18.26
2023-04-30T13:22:32.009Z,18.12
2023-04-30T13:25:01.151Z,17.92
2023-04-30T13:27:29.825Z,17.78
2023-04-30T13:29:59.101Z,17.86
2023-04-30T13:32:28.178Z,17.90
2023-04-30T13:34:58.469Z,17.80
2023-04-30T13:37:27.130Z,17.79
2023-04-30T13:39:56.141Z,17.72
2023-04-30T13:42:26.790Z,17.84
2023-04-30T13:44:56.099Z,17.68
2023-04-30T13:47:24.886Z,17.78
2023-04-30T13:49:53.808Z,17.72
2023-04-30T13:52:22.642Z,17.71
2023-04-30T13:54:52.375Z,17.71
2023-04-30T13:57:21.136Z,17.54
2023-04-30T13:59:50.286Z,17.59
2023-04-30T14:02:19.098Z,17.61
2023-04-30T14:05:02.027Z,17.52
2023-04-30T14:07:34.393Z,17.32
2023-04-30T14:10:03.261Z,17.20
2023-04-30T14:12:32.107Z,17.20
2023-04-30T14:15:00.761Z,17.05
2023-04-30T14:17:30.231Z,16.89
2023-04-30T14:19:59.034Z,16.88
2023-04-30T14:22:27.772Z,16.98
2023-04-30T14:24:56.493Z,16.93
2023-04-30T14:27:25.422Z,16.97
2023-04-30T14:29:54.525Z,16.89
2023-04-30T14:32:27.268Z,16.93
2023-04-30T14:34:56.210Z,16.81
2023-04-30T14:37:25.303Z,16.58
2023-04-30T14:39:54.511Z,16.48
2023-04-30T14:42:23.576Z,16.47
2023-04-30T14:44:53.512Z,16.51
2023-04-30T14:47:22.740Z,16.61
2023-04-30T14:49:53.736Z,16.56
2023-04-30T14:52:22.690Z,16.62
2023-04-30T14:54:51.340Z,16.65
2023-04-30T14:57:20.084Z,16.71
2023-04-30T14:59:48.794Z,16.73
2023-04-30T15:02:17.553Z,16.52
2023-04-30T15:04:47.440Z,16.49
2023-04-30T15:07:16.243Z,16.25
2023-04-30T15:09:46.763Z,16.13
2023-04-30T15:12:15.499Z,16.03
2023-04-30T15:14:44.801Z,15.94
2023-04-30T15:17:13.755Z,15.93
2023-04-30T15:19:42.427Z,15.92
2023-04-30T15:22:11.168Z,15.95
2023-04-30T15:24:39.881Z,15.92
2023-04-30T15:27:08.625Z,15.74
2023-04-30T15:29:37.282Z,15.62
2023-04-30T15:32:06.259Z,15.53
2023-04-30T15:34:34.920Z,15.46
2023-04-30T15:37:03.690Z,15.37
2023-04-30T15:39:32.364Z,15.29
2023-04-30T15:42:01.677Z,15.19
2023-04-30T15:44:30.388Z,15.05
2023-04-30T15:46:59.227Z,14.92
2023-04-30T15:49:28.055Z,14.81
2023-04-30T15:51:56.716Z,14.67
2023-04-30T15:54:25.731Z,14.49
2023-04-30T15:56:54.484Z,14.34
2023-04-30T15:59:23.112Z,14.21
2023-04-30T16:01:51.831Z,14.14
2023-04-30T16:04:20.495Z,14.10
2023-04-30T16:06:49.803Z,14.05
2023-04-30T16:09:20.424Z,13.97
2023-04-30T16:11:49.278Z,13.89
2023-04-30T16:14:17.999Z,13.80
2023-04-30T16:16:47.031Z,13.77
2023-04-30T16:19:17.358Z,13.76
2023-04-30T16:21:46.201Z,13.69
2023-04-30T16:24:16.376Z,13.62
2023-04-30T16:26:45.134Z,13.58
2023-04-30T16:29:13.941Z,13.53
2023-04-30T16:31:42.700Z,13.49
2023-04-30T16:34:12.251Z,13.45
2023-04-30T16:36:41.017Z,13.36
2023-04-30T16:39:09.662Z,13.32
2023-04-30T16:41:38.376Z,13.25
2023-04-30T16:44:07.636Z,13.20
2023-04-30T16:46:36.564Z,13.11
2023-04-30T16:49:05.722Z,13.11
2023-04-30T16:51:34.468Z,13.08
2023-04-30T16:54:04.178Z,13.05
2023-04-30T16:56:32.846Z,13.00
2023-04-30T16:59:01.515Z,12.97
2023-04-30T17:01:30.346Z,12.93
2023-04-30T17:03:59.095Z,12.90
2023-04-30T17:06:27.883Z,12.86
2023-04-30T17:08:56.979Z,12.83
2023-04-30T17:11:25.682Z,12.74
2023-04-30T17:13:55.217Z,12.66
2023-04-30T17:16:23.946Z,12.60
2023-04-30T17:18:52.679Z,12.58
2023-04-30T17:21:21.408Z,12.57
2023-04-30T17:23:50.108Z,12.52
2023-04-30T17:26:18.782Z,12.47
2023-04-30T17:28:47.778Z,12.41
2023-04-30T17:31:16.497Z,12.33
2023-04-30T17:33:46.119Z,12.26
2023-04-30T17:36:16.156Z,12.20
2023-04-30T17:38:44.821Z,12.07
2023-04-30T17:41:13.531Z,11.97
2023-04-30T17:43:42.219Z,11.84
2023-04-30T17:46:11.721Z,11.70
2023-04-30T17:48:40.437Z,11.58
2023-04-30T17:51:09.486Z,11.53
2023-04-30T17:53:38.448Z,11.40
2023-04-30T17:56:08.896Z,11.30
2023-04-30T17:58:39.775Z,11.18
2023-04-30T18:01:09.100Z,11.08
2023-04-30T18:03:38.042Z,10.92
2023-04-30T18:06:07.318Z,10.78
2023-04-30T18:08:36.024Z,10.63
2023-04-30T18:11:04.765Z,10.52
2023-04-30T18:13:33.421Z,10.40
2023-04-30T18:16:02.135Z,10.26
2023-04-30T18:18:31.070Z,10.10
2023-04-30T18:21:00.002Z,10.00
2023-04-30T18:23:28.683Z,9.85
2023-04-30T18:25:57.572Z,9.73
2023-04-30T18:28:26.328Z,9.59
2023-04-30T18:30:56.137Z,9.48
2023-04-30T18:33:24.838Z,9.36
2023-04-30T18:35:53.830Z,9.23
2023-04-30T18:38:23.560Z,9.09
2023-04-30T18:40:55.920Z,8.95
2023-04-30T18:43:24.643Z,8.85
2023-04-30T18:45:53.453Z,8.77
2023-04-30T18:48:23.096Z,8.69
2023-04-30T18:50:51.852Z,8.61
2023-04-30T18:53:20.535Z,8.50
2023-04-30T18:55:49.208Z,8.38
2023-04-30T18:58:17.923Z,8.27
2023-04-30T19:00:46.627Z,8.19
2023-04-30T19:03:15.447Z,8.11
2023-04-30T19:05:44.282Z,8.02
2023-04-30T19:08:12.968Z,7.95
2023-04-30T19:10:41.629Z,7.88
2023-04-30T19:13:11.343Z,7.79
2023-04-30T19:15:43.559Z,7.68
2023-04-30T19:18:13.775Z,7.59
2023-04-30T19:20:45.783Z,7.48
2023-04-30T19:23:15.110Z,7.41
2023-04-30T19:25:47.653Z,7.32
2023-04-30T19:28:16.835Z,7.23
2023-04-30T19:30:45.624Z,7.15
2023-04-30T19:33:14.404Z,7.11
2023-04-30T19:35:43.128Z,7.04
2023-04-30T19:38:11.754Z,6.98
2023-04-30T19:40:46.379Z,6.89
2023-04-30T19:43:15.503Z,6.84
2023-04-30T19:45:51.892Z,6.77
2023-04-30T19:48:25.742Z,6.73
2023-04-30T19:50:54.965Z,6.68
2023-04-30T19:53:25.615Z,6.61
2023-04-30T19:55:55.343Z,6.53
2023-04-30T19:58:24.085Z,6.48
2023-04-30T20:00:53.540Z,6.39
2023-04-30T20:03:22.817Z,6.26
2023-04-30T20:05:52.439Z,6.17
2023-04-30T20:08:22.038Z,6.11
2023-04-30T20:10:50.760Z,5.99
2023-04-30T20:13:21.017Z,5.93
2023-04-30T20:15:49.812Z,5.85
2023-04-30T20:18:18.741Z,5.85
2023-04-30T20:20:48.624Z,5.86
2023-04-30T20:23:17.959Z,5.81
2023-04-30T20:25:46.843Z,5.79
2023-04-30T20:28:16.851Z,5.79
2023-04-30T20:30:47.965Z,5.74
2023-04-30T20:33:16.747Z,5.65
2023-04-30T20:35:48.407Z,5.58
2023-04-30T20:38:19.814Z,5.56
2023-04-30T20:40:48.883Z,5.53
2023-04-30T20:43:17.655Z,5.50
2023-04-30T20:45:46.416Z,5.45
2023-04-30T20:48:15.392Z,5.39
2023-04-30T20:50:44.818Z,5.33
2023-04-30T20:53:15.129Z,5.32
2023-04-30T20:55:44.230Z,5.34
2023-04-30T20:58:12.894Z,5.40
2023-04-30T21:00:41.599Z,5.52
2023-04-30T21:03:10.509Z,5.60
2023-04-30T21:05:40.916Z,5.62
2023-04-30T21:08:09.675Z,5.58
2023-04-30T21:10:38.355Z,5.45
2023-04-30T21:13:08.990Z,5.38
2023-04-30T21:15:39.884Z,5.35
2023-04-30T21:18:09.374Z,5.28
2023-04-30T21:20:38.163Z,5.11
2023-04-30T21:23:06.896Z,5.00
2023-04-30T21:25:40.096Z,4.99
2023-04-30T21:28:08.861Z,4.97
2023-04-30T21:30:37.541Z,4.96
2023-04-30T21:33:06.226Z,4.90
2023-04-30T21:35:35.094Z,4.85
2023-04-30T21:38:03.957Z,4.80
2023-04-30T21:40:33.831Z,4.71
2023-04-30T21:43:03.576Z,4.61
2023-04-30T21:45:32.424Z,4.54
2023-04-30T21:48:01.206Z,4.41
2023-04-30T21:50:32.607Z,4.41
2023-04-30T21:53:03.298Z,4.50
2023-04-30T21:55:32.159Z,4.48
2023-04-30T21:58:00.831Z,4.53
2023-04-30T22:00:30.055Z,4.59
2023-04-30T22:02:59.008Z,4.60
2023-04-30T22:05:27.926Z,4.58
2023-04-30T22:07:56.555Z,4.51
2023-04-30T22:10:25.251Z,4.46
2023-04-30T22:12:53.961Z,4.44
2023-04-30T22:15:22.770Z,4.39
2023-04-30T22:17:51.521Z,4.34
2023-04-30T22:20:20.301Z,4.28
2023-04-30T22:22:48.947Z,4.26
2023-04-30T22:25:18.119Z,4.24
2023-04-30T22:27:47.273Z,4.17
2023-04-30T22:30:18.661Z,4.19
2023-04-30T22:32:47.376Z,4.23
2023-04-30T22:35:17.208Z,4.26
2023-04-30T22:37:45.912Z,4.16
2023-04-30T22:40:14.779Z,4.02
2023-04-30T22:42:43.693Z,3.90
2023-04-30T22:45:12.813Z,3.87
2023-04-30T22:47:42.239Z,3.85
2023-04-30T22:50:11.080Z,3.84
2023-04-30T22:52:40.031Z,3.78
2023-04-30T22:55:08.895Z,3.74
2023-04-30T22:57:37.575Z,3.67
2023-04-30T23:00:07.178Z,3.60
2023-04-30T23:02:36.456Z,3.53
2023-04-30T23:05:05.723Z,3.44
2023-04-30T23:07:34.390Z,3.38
2023-04-30T23:10:05.137Z,3.44
2023-04-30T23:12:35.681Z,3.54
2023-04-30T23:15:04.694Z,3.62
2023-04-30T23:17:33.805Z,3.67
2023-04-30T23:20:03.229Z,3.69
2023-04-30T23:22:31.929Z,3.63
2023-04-30T23:25:00.868Z,3.49
2023-04-30T23:27:29.734Z,3.37
2023-04-30T23:29:58.426Z,3.32
2023-04-30T23:32:27.923Z,3.26
2023-04-30T23:34:56.928Z,3.21
2023-04-30T23:37:25.643Z,3.17
2023-04-30T23:39:54.701Z,3.11
2023-04-30T23:42:23.837Z,3.04
2023-04-30T23:44:52.505Z,2.97
2023-04-30T23:47:21.176Z,2.97
2023-04-30T23:49:49.880Z,2.99
2023-04-30T23:52:18.977Z,2.99
2023-04-30T23:54:47.623Z,3.01
2023-04-30T23:57:16.421Z,2.95
2023-04-30T23:59:45.535Z,2.74
